createdAt,value
2023-03-24T00:01:44.728Z,71.95
2023-03-24T00:04:16.588Z,72.09
2023-03-24T00:06:49.684Z,72.04
2023-03-24T00:09:19.448Z,72.02
2023-03-24T00:11:51.332Z,71.99
2023-03-24T00:14:21.001Z,72.11
2023-03-24T00:16:53.308Z,72.21
2023-03-24T00:19:24.126Z,72.15
2023-03-24T00:21:56.335Z,72.17
2023-03-24T00:24:26.323Z,72.08
2023-03-24T00:26:58.759Z,72.10
2023-03-24T00:29:31.451Z,72.27
2023-03-24T00:32:02.508Z,72.37
2023-03-24T00:34:34.768Z,72.21
2023-03-24T00:37:05.155Z,72.32
2023-03-24T00:39:34.582Z,72.36
2023-03-24T00:42:06.219Z,72.23
2023-03-24T00:44:36.570Z,72.30
2023-03-24T00:47:07.065Z,72.59
2023-03-24T00:49:50.000Z,72.70
2023-03-24T00:52:21.448Z,72.74
2023-03-24T00:54:58.702Z,72.83
2023-03-24T00:57:30.461Z,72.66
2023-03-24T00:59:59.793Z,72.72
2023-03-24T01:02:32.545Z,72.89
2023-03-24T01:05:04.579Z,72.75
2023-03-24T01:07:35.508Z,72.96
2023-03-24T01:10:08.818Z,72.98
2023-03-24T01:12:38.545Z,73.01
2023-03-24T01:15:15.304Z,73.08
2023-03-24T01:17:47.476Z,72.90
2023-03-24T01:20:20.602Z,73.04
2023-03-24T01:22:52.795Z,73.01
2023-03-24T01:25:27.134Z,72.83
2023-03-24T01:27:57.245Z,73.11
2023-03-24T01:30:29.444Z,72.96
2023-03-24T01:33:00.935Z,73.14
2023-03-24T01:35:31.328Z,73.07
2023-03-24T01:38:02.035Z,73.26
2023-03-24T01:40:34.115Z,73.24
2023-03-24T01:43:04.382Z,73.16
2023-03-24T01:45:59.690Z,73.38
2023-03-24T01:48:33.071Z,73.32
2023-03-24T01:51:03.453Z,73.32
2023-03-24T01:53:35.469Z,73.57
2023-03-24T01:56:08.291Z,73.37
2023-03-24T01:58:44.916Z,73.36
2023-03-24T02:01:30.357Z,73.21
2023-03-24T02:04:13.267Z,73.40
2023-03-24T02:06:44.582Z,73.38
2023-03-24T02:09:16.009Z,73.49
2023-03-24T02:11:46.234Z,73.53
2023-03-24T02:14:16.929Z,73.68
2023-03-24T02:16:50.195Z,73.53
2023-03-24T02:19:42.314Z,73.65
2023-03-24T02:22:14.643Z,73.89
2023-03-24T02:25:04.745Z,73.89
2023-03-24T02:27:55.925Z,73.73
2023-03-24T02:30:42.623Z,73.84
2023-03-24T02:33:14.661Z,74.22
2023-03-24T02:35:47.053Z,74.21
2023-03-24T02:38:29.321Z,74.48
2023-03-24T02:41:02.967Z,74.48
2023-03-24T02:43:51.382Z,74.14
2023-03-24T02:46:26.219Z,74.34
2023-03-24T02:49:07.954Z,74.28
2023-03-24T02:51:44.147Z,74.29
2023-03-24T02:54:17.266Z,74.40
2023-03-24T02:57:07.118Z,74.47
2023-03-24T03:00:01.216Z,74.45
2023-03-24T03:03:04.421Z,74.53
2023-03-24T03:05:40.057Z,74.67
2023-03-24T03:08:13.169Z,74.70
2023-03-24T03:10:45.816Z,74.66
2023-03-24T03:13:35.936Z,74.58
2023-03-24T03:16:09.447Z,74.90
2023-03-24T03:18:46.935Z,74.68
2023-03-24T03:21:17.437Z,74.77
2023-03-24T03:24:09.879Z,74.64
2023-03-24T03:26:41.662Z,74.76
2023-03-24T03:29:18.058Z,74.87
2023-03-24T03:32:00.196Z,74.82
2023-03-24T03:34:38.072Z,74.75
2023-03-24T03:37:11.083Z,74.84
2023-03-24T03:39:50.350Z,74.94
2023-03-24T03:42:22.838Z,74.90
2023-03-24T03:44:53.234Z,75.17
2023-03-24T03:47:24.286Z,75.13
2023-03-24T03:49:56.450Z,75.09
2023-03-24T03:52:27.955Z,75.03
2023-03-24T03:54:59.785Z,74.97
2023-03-24T03:57:33.261Z,75.05
2023-03-24T04:00:29.916Z,75.16
2023-03-24T04:03:40.180Z,75.27
2023-03-24T04:06:27.598Z,75.24
2023-03-24T04:09:05.916Z,75.46
2023-03-24T04:12:05.081Z,75.27
2023-03-24T04:14:58.511Z,75.67
2023-03-24T04:17:57.630Z,75.56
2023-03-24T04:20:54.439Z,75.75
2023-03-24T04:23:50.332Z,75.65
2023-03-24T04:26:43.030Z,75.84
2023-03-24T04:29:19.753Z,75.71
2023-03-24T04:31:56.439Z,75.59
2023-03-24T04:34:42.142Z,75.64
2023-03-24T04:37:29.042Z,75.79
2023-03-24T04:40:04.974Z,75.78
2023-03-24T04:42:56.724Z,76.05
2023-03-24T04:45:33.857Z,76.05
2023-03-24T04:48:26.674Z,76.13
2023-03-24T04:51:23.641Z,75.93
2023-03-24T04:54:03.686Z,75.92
2023-03-24T04:56:55.197Z,76.18
2023-03-24T04:59:37.564Z,76.33
2023-03-24T05:02:09.655Z,76.25
2023-03-24T05:04:58.426Z,76.19
2023-03-24T05:07:36.532Z,76.29
2023-03-24T05:10:09.911Z,76.51
2023-03-24T05:12:45.580Z,76.39
2023-03-24T05:15:35.382Z,76.42
2023-03-24T05:18:19.289Z,76.50
2023-03-24T05:20:49.163Z,76.58
2023-03-24T05:23:22.776Z,76.87
2023-03-24T05:25:53.215Z,76.55
2023-03-24T05:28:24.371Z,76.64
2023-03-24T05:30:54.830Z,76.68
2023-03-24T05:33:40.871Z,76.60
2023-03-24T05:36:12.426Z,76.77
2023-03-24T05:38:43.439Z,76.71
2023-03-24T05:41:12.183Z,76.43
2023-03-24T05:43:44.921Z,76.70
2023-03-24T05:46:16.232Z,76.53
2023-03-24T05:48:48.963Z,76.99
2023-03-24T05:51:19.915Z,76.71
2023-03-24T05:54:05.071Z,77.09
2023-03-24T05:56:40.404Z,76.94
2023-03-24T05:59:36.143Z,76.91
2023-03-24T06:02:37.404Z,76.92
2023-03-24T06:05:12.940Z,76.82
2023-03-24T06:07:44.662Z,76.88
2023-03-24T06:29:06.779Z,76.81
2023-03-24T06:31:39.684Z,76.88
2023-03-24T06:34:12.270Z,76.89
2023-03-24T06:36:47.397Z,76.83
2023-03-24T06:39:17.349Z,76.96
2023-03-24T06:41:50.334Z,77.10
2023-03-24T06:44:42.811Z,76.97
2023-03-24T06:47:15.991Z,77.07
2023-03-24T06:50:06.456Z,77.13
2023-03-24T06:52:38.272Z,77.18
2023-03-24T06:55:10.124Z,77.14
2023-03-24T06:57:40.419Z,77.20
2023-03-24T07:00:31.011Z,77.16
2023-03-24T07:03:25.499Z,77.24
2023-03-24T07:06:20.036Z,77.24
2023-03-24T07:08:59.500Z,77.31
2023-03-24T07:11:30.227Z,77.24
2023-03-24T07:14:02.739Z,77.21
2023-03-24T07:17:25.586Z,77.17
2023-03-24T07:20:19.147Z,77.25
2023-03-24T07:23:00.690Z,77.01
2023-03-24T07:25:50.801Z,77.08
2023-03-24T07:28:51.914Z,76.89
2023-03-24T07:31:41.777Z,76.97
2023-03-24T07:34:19.761Z,76.95
2023-03-24T07:36:51.218Z,76.50
2023-03-24T07:39:22.029Z,76.23
2023-03-24T07:41:55.002Z,75.72
2023-03-24T07:44:35.178Z,75.43
2023-03-24T07:47:06.300Z,74.79
2023-03-24T07:50:17.367Z,74.19
2023-03-24T07:53:10.149Z,73.39
2023-03-24T07:55:40.556Z,73.40
2023-03-24T07:58:16.494Z,73.55
2023-03-24T08:01:00.194Z,73.39
2023-03-24T08:03:38.316Z,72.95
2023-03-24T08:06:31.547Z,72.19
2023-03-24T08:09:04.996Z,72.49
2023-03-24T08:11:34.992Z,73.13
2023-03-24T08:14:06.318Z,73.58
2023-03-24T08:16:35.550Z,73.95
2023-03-24T08:19:06.241Z,74.23
2023-03-24T08:21:36.525Z,74.22
2023-03-24T08:24:10.577Z,74.51
2023-03-24T08:26:47.564Z,75.00
2023-03-24T08:29:25.135Z,75.12
2023-03-24T08:32:03.308Z,75.11
2023-03-24T08:34:41.921Z,75.26
2023-03-24T08:37:15.457Z,75.47
2023-03-24T08:39:45.113Z,75.40
2023-03-24T08:42:15.525Z,75.50
2023-03-24T08:44:46.962Z,75.16
2023-03-24T08:47:16.187Z,75.25
2023-03-24T08:49:47.256Z,75.23
2023-03-24T08:52:20.942Z,75.28
2023-03-24T08:54:58.797Z,75.58
2023-03-24T08:57:34.277Z,75.45
2023-03-24T09:00:13.321Z,75.58
2023-03-24T09:02:47.411Z,75.56
2023-03-24T09:05:29.362Z,75.64
2023-03-24T09:08:09.607Z,75.54
2023-03-24T09:10:52.973Z,75.69
2023-03-24T09:13:23.523Z,75.84
2023-03-24T09:15:55.186Z,75.83
2023-03-24T09:18:26.671Z,75.87
2023-03-24T09:20:57.390Z,76.15
2023-03-24T09:23:57.034Z,76.07
2023-03-24T09:26:34.265Z,76.11
2023-03-24T09:29:05.055Z,76.30
2023-03-24T09:31:36.064Z,76.14
2023-03-24T09:34:05.357Z,76.29
2023-03-24T09:36:37.863Z,76.28
2023-03-24T09:39:09.263Z,76.37
2023-03-24T09:41:40.132Z,76.22
2023-03-24T09:44:23.134Z,76.43
2023-03-24T09:47:04.980Z,76.48
2023-03-24T09:49:39.102Z,76.56
2023-03-24T09:52:13.960Z,76.60
2023-03-24T09:54:47.952Z,76.41
2023-03-24T09:57:21.647Z,75.93
2023-03-24T09:59:52.433Z,75.52
2023-03-24T10:02:22.865Z,75.18
2023-03-24T10:04:54.024Z,74.62
2023-03-24T10:07:24.722Z,74.38
2023-03-24T10:09:57.137Z,73.70
2023-03-24T10:12:27.135Z,72.40
2023-03-24T10:15:30.894Z,70.74
2023-03-24T10:18:07.966Z,68.85
2023-03-24T10:20:45.701Z,68.18
2023-03-24T10:23:18.321Z,66.39
2023-03-24T10:26:05.444Z,65.89
2023-03-24T10:29:03.703Z,65.19
2023-03-24T10:31:36.876Z,65.82
2023-03-24T10:34:11.130Z,65.55
2023-03-24T10:36:42.023Z,65.87
2023-03-24T10:39:22.366Z,67.22
2023-03-24T10:41:57.381Z,66.59
2023-03-24T10:44:29.452Z,66.24
2023-03-24T10:47:01.687Z,67.34
2023-03-24T10:49:33.338Z,67.77
2023-03-24T10:52:04.371Z,66.65
2023-03-24T10:54:34.440Z,67.13
2023-03-24T10:57:05.565Z,67.61
2023-03-24T10:59:39.482Z,67.84
2023-03-24T11:02:11.753Z,67.61
2023-03-24T11:04:43.412Z,68.04
2023-03-24T11:07:18.152Z,67.52
2023-03-24T11:09:56.907Z,67.21
2023-03-24T11:12:31.152Z,67.48
2023-03-24T11:15:22.486Z,67.49
2023-03-24T11:18:46.711Z,67.73
2023-03-24T11:21:17.311Z,67.72
2023-03-24T11:23:48.804Z,67.83
2023-03-24T11:26:18.820Z,67.67
2023-03-24T11:28:53.931Z,68.01
2023-03-24T11:31:31.308Z,68.22
2023-03-24T11:34:09.377Z,67.31
2023-03-24T11:36:45.596Z,66.74
2023-03-24T11:39:22.729Z,65.49
2023-03-24T11:42:10.712Z,65.28
2023-03-24T11:44:47.250Z,64.60
2023-03-24T11:47:39.422Z,64.11
2023-03-24T11:50:11.431Z,64.32
2023-03-24T11:52:56.086Z,63.96
2023-03-24T11:55:47.846Z,64.02
2023-03-24T11:58:20.386Z,64.47
2023-03-24T12:00:57.118Z,63.82
2023-03-24T12:03:34.553Z,63.57
2023-03-24T12:06:26.148Z,63.60
2023-03-24T12:09:07.049Z,63.89
2023-03-24T12:11:55.872Z,64.08
2023-03-24T12:14:30.680Z,64.08
2023-03-24T12:17:50.807Z,64.10
2023-03-24T12:20:27.563Z,63.99
2023-03-24T12:23:00.927Z,63.90
2023-03-24T12:25:57.453Z,63.95
2023-03-24T12:28:41.771Z,63.55
2023-03-24T12:31:20.883Z,63.59
2023-03-24T12:33:50.103Z,63.53
2023-03-24T12:36:37.665Z,63.44
2023-03-24T12:39:14.007Z,63.40
2023-03-24T12:41:50.722Z,63.23
2023-03-24T12:44:34.259Z,63.53
2023-03-24T12:47:23.266Z,63.24
2023-03-24T12:50:06.266Z,63.22
2023-03-24T12:52:51.131Z,63.25
2023-03-24T12:55:31.913Z,62.95
2023-03-24T12:58:07.151Z,63.12
2023-03-24T13:00:42.213Z,63.18
2023-03-24T13:03:21.900Z,63.00
2023-03-24T13:05:59.771Z,63.09
2023-03-24T13:08:38.403Z,63.12
2023-03-24T13:11:16.882Z,62.95
2023-03-24T13:13:56.891Z,62.76
2023-03-24T13:16:30.275Z,62.71
2023-03-24T13:19:02.742Z,63.07
2023-03-24T13:21:35.705Z,62.83
2023-03-24T13:24:11.205Z,62.87
2023-03-24T13:26:45.435Z,62.88
2023-03-24T13:29:45.577Z,62.92
2023-03-24T13:32:22.226Z,63.05
2023-03-24T13:34:58.911Z,63.03
2023-03-24T13:37:39.892Z,63.18
2023-03-24T13:40:20.603Z,63.24
2023-03-24T13:42:57.231Z,63.30
2023-03-24T13:45:35.836Z,63.38
2023-03-24T13:48:11.250Z,63.34
2023-03-24T13:50:43.243Z,63.48
2023-03-24T13:53:17.959Z,63.46
2023-03-24T13:55:51.368Z,63.61
2023-03-24T13:58:26.161Z,63.59
2023-03-24T14:01:15.130Z,63.74
2023-03-24T14:03:48.831Z,64.10
2023-03-24T14:06:20.658Z,64.07
2023-03-24T14:08:53.259Z,64.20
2023-03-24T14:11:34.557Z,64.49
2023-03-24T14:14:28.600Z,64.57
2023-03-24T14:17:18.513Z,64.76
2023-03-24T14:19:48.297Z,64.85
2023-03-24T14:22:26.655Z,65.13
2023-03-24T14:25:02.952Z,65.02
2023-03-24T14:27:39.010Z,65.00
2023-03-24T14:30:12.155Z,65.00
2023-03-24T14:32:53.903Z,65.15
2023-03-24T14:35:25.828Z,65.15
2023-03-24T14:38:00.658Z,65.10
2023-03-24T14:40:36.186Z,65.18
2023-03-24T14:43:16.571Z,65.06
2023-03-24T14:45:57.445Z,65.23
2023-03-24T14:48:58.019Z,65.32
2023-03-24T14:51:37.034Z,65.31
2023-03-24T14:54:33.535Z,65.19
2023-03-24T14:57:04.195Z,65.27
2023-03-24T14:59:53.711Z,65.19
2023-03-24T15:02:23.780Z,65.13
2023-03-24T15:05:25.886Z,65.18
2023-03-24T15:08:13.304Z,65.26
2023-03-24T15:10:55.095Z,65.33
2023-03-24T15:13:42.776Z,65.43
2023-03-24T15:16:41.988Z,65.46
2023-03-24T15:19:21.742Z,65.67
2023-03-24T15:22:03.812Z,65.70
2023-03-24T15:24:35.350Z,65.73
2023-03-24T15:27:07.007Z,65.74
2023-03-24T15:29:41.212Z,65.78
2023-03-24T15:32:19.611Z,65.95
2023-03-24T15:34:51.474Z,65.98
2023-03-24T15:37:27.502Z,65.90
2023-03-24T15:40:12.559Z,66.15
2023-03-24T15:42:46.908Z,66.03
2023-03-24T15:45:23.163Z,66.16
2023-03-24T15:47:54.290Z,66.26
2023-03-24T15:50:32.894Z,66.24
2023-03-24T15:53:08.147Z,66.33
2023-03-24T15:55:38.692Z,66.26
2023-03-24T15:58:28.704Z,66.35
2023-03-24T16:01:00.083Z,66.46
2023-03-24T16:03:34.354Z,66.53
2023-03-24T16:06:13.273Z,66.57
2023-03-24T16:08:43.384Z,66.54
2023-03-24T16:11:14.835Z,66.68
2023-03-24T16:13:47.272Z,66.65
2023-03-24T16:16:27.282Z,66.77
2023-03-24T16:18:59.835Z,66.74
2023-03-24T16:21:49.633Z,66.73
2023-03-24T16:24:18.600Z,66.88
2023-03-24T16:27:08.921Z,66.88
2023-03-24T16:29:41.629Z,66.89
2023-03-24T18:52:59.025Z,70.76
2023-03-24T18:55:53.474Z,70.59
2023-03-24T19:42:25.956Z,71.53
2023-03-24T19:44:59.167Z,71.28
2023-03-24T19:47:35.888Z,71.39
2023-03-24T19:50:09.448Z,71.35
2023-03-24T19:52:47.009Z,71.09
2023-03-24T19:55:23.838Z,71.19
2023-03-24T19:58:00.651Z,71.18
2023-03-24T20:00:34.172Z,71.17
2023-03-24T20:03:08.528Z,71.16
2023-03-24T20:05:43.569Z,71.26
2023-03-24T20:08:14.300Z,71.35
2023-03-24T20:17:02.738Z,71.39
2023-03-24T20:19:59.386Z,71.68
2023-03-24T20:22:51.703Z,71.51
2023-03-24T20:25:24.538Z,71.69
2023-03-24T20:27:57.117Z,71.74
2023-03-24T20:30:30.556Z,71.72
2023-03-24T20:33:03.496Z,71.77
2023-03-24T20:35:37.094Z,71.86
2023-03-24T20:38:08.234Z,71.75
2023-03-24T20:40:39.179Z,71.88
2023-03-24T20:43:10.796Z,71.86
2023-03-24T20:45:42.262Z,71.81
2023-03-24T20:48:15.559Z,72.09
2023-03-24T20:50:49.577Z,72.15
2023-03-24T20:53:21.207Z,72.31
2023-03-24T20:56:05.714Z,72.29
2023-03-24T20:58:42.745Z,72.23
2023-03-24T21:01:27.326Z,72.27
2023-03-24T21:04:08.352Z,72.48
2023-03-24T21:06:41.844Z,72.56
2023-03-24T21:09:23.543Z,72.21
2023-03-24T21:11:57.355Z,72.22
2023-03-24T21:14:31.042Z,72.07
2023-03-24T21:21:30.452Z,72.01
2023-03-24T21:24:05.534Z,72.11
2023-03-24T21:26:39.056Z,72.40
2023-03-24T21:29:13.435Z,72.25
2023-03-24T21:31:44.618Z,72.25
2023-03-24T21:34:18.344Z,72.40
2023-03-24T21:36:54.095Z,72.50
2023-03-24T21:39:25.246Z,72.45
2023-03-24T22:32:39.128Z,73.01
2023-03-24T22:35:09.860Z,73.34
2023-03-24T22:37:38.934Z,73.28
2023-03-24T22:40:10.332Z,73.35
2023-03-24T22:42:41.591Z,73.33
2023-03-24T22:45:14.340Z,73.37
2023-03-24T22:47:43.289Z,73.42
2023-03-24T22:54:37.461Z,73.58
2023-03-24T22:57:30.282Z,73.74
2023-03-24T23:06:20.079Z,73.86
2023-03-24T23:08:52.629Z,73.88
2023-03-24T23:11:21.554Z,73.94
2023-03-24T23:13:52.685Z,73.76
2023-03-24T23:16:23.016Z,73.94
2023-03-24T23:18:57.685Z,73.95
2023-03-24T23:21:30.724Z,73.84
2023-03-24T23:24:01.000Z,73.92
2023-03-24T23:26:31.913Z,73.73
2023-03-24T23:29:03.548Z,73.75
2023-03-24T23:31:36.076Z,73.93
2023-03-24T23:34:07.844Z,73.91
2023-03-24T23:36:40.001Z,74.29
2023-03-24T23:39:10.762Z,74.50
2023-03-24T23:41:40.158Z,74.32
2023-03-24T23:44:15.283Z,74.53
2023-03-24T23:46:46.740Z,74.63
2023-03-24T23:49:17.642Z,74.32
2023-03-24T23:51:51.039Z,74.48
2023-03-24T23:54:20.133Z,74.52
2023-03-24T23:56:54.294Z,74.81
2023-03-24T23:59:25.203Z,74.63
